Airfield :







YOU CAN JOIN US ON...

 
LOGIN :

Register | Disclaimer

   EN    FR    IT 

 









Legend :    VFR   Marginal VFR   IFR   Intensive IFR   Very Intensive IFR
Visi :
Ceiling :
>= 8 km
>= 3000ft
5 to 8 km
1000 to 3000 ft
1500m to 5 km
500 to 1000 ft
800 to 1500m
200 to 500 ft
< 800m
< 200 ft
Symbols :   Thunderstorms  Fog  Heavy snow  Heavy precipitations  Wind > 20 kt






- Airport Elevation : 461 ft
- IATA code : YYT


CYYT - St John's Int

CURRENT METAR :
  • 101200Z 15019G24KT 15SM OVC160 M01/M05 A2970 RMK AC8 SLP065

EXPIRED METARs :
  • 101100Z 16012KT 15SM SCT025 OVC180 M02/M04 A2972 RMK SC3AC5 SLP074
  • 101000Z 16003KT 15SM BKN190 M03/M07 A2974 RMK AC6 SLP080

TAF TAF CYYT
Valid from the 10 at 12:00 until the 11 at 12:00 UTC


101139Z 1012/1112 16012G22KT P6SM SCT020 OVC180
TEMPO 1013/1015 11/2SM -SHSN OVC020
BECMG 1013/1014 15025G35KT
FM101500 15025G40KT 11/2SM -SHSN BKN007 OVC012
TEMPO 1015/1017 4SM -RASN -PL BR SCT007 OVC012
PROB30 1015/1017 3SM -FZRA -PL BR BKN003 OVC010
FM101700 15030G45KT 2SM -RA BR OVC005
TEMPO 1017/1021 6SM -RA BR
FM102100 18020G35KT 3SM -RA BR OVC008
TEMPO 1021/1023 P6SM NSW SCT008 OVC015
FM102300 21012KT P6SM FEW010 SCT100
FM110400 23012KT 6SM -RA BR BKN007 BKN080
FM110600 19012KT 2SM -DZ BR BKN003 OVC008
FM111100 21010KT P6SM FEW008 BKN150 RMK NXT FCST BY 101800Z



MET'MAP, your aeronautical weather chart ! - Copyright ORBIFLY December 2007 - Disclaimer

ORBIFLY MET'MAP TEAM :

Programming & Development : Alexandra Zaïnal
Concept & original design : Baudouin d'Aumeries
Assistance for programming : Marc-Olivier Méhu
Technical & hardware support : Manuel Goepfert

Contact : metmap@orbifly.com




SOURCES & CREDITS :

   NOAA